sensor_id;sensor_type;location;lat;lon;timestamp;P1;durP1;ratioP1;P2;durP2;ratioP2
64986;SDS011;51532;52.108;9.360;2023-02-15T00:02:00;21.60;;;15.63;;
64986;SDS011;51532;52.108;9.360;2023-02-15T00:04:28;19.48;;;14.48;;
64986;SDS011;51532;52.108;9.360;2023-02-15T00:07:13;22.17;;;16.33;;
64986;SDS011;51532;52.108;9.360;2023-02-15T00:09:42;21.08;;;14.82;;
64986;SDS011;51532;52.108;9.360;2023-02-15T00:12:09;20.13;;;15.98;;
64986;SDS011;51532;52.108;9.360;2023-02-15T00:14:36;20.15;;;15.07;;
64986;SDS011;51532;52.108;9.360;2023-02-15T00:17:03;21.42;;;16.15;;
64986;SDS011;51532;52.108;9.360;2023-02-15T00:19:30;20.23;;;15.30;;
64986;SDS011;51532;52.108;9.360;2023-02-15T00:21:57;21.48;;;14.43;;
64986;SDS011;51532;52.108;9.360;2023-02-15T00:24:24;21.33;;;14.40;;
64986;SDS011;51532;52.108;9.360;2023-02-15T00:26:50;20.02;;;14.90;;
64986;SDS011;51532;52.108;9.360;2023-02-15T00:29:19;19.35;;;14.57;;
64986;SDS011;51532;52.108;9.360;2023-02-15T00:31:46;21.38;;;14.32;;
64986;SDS011;51532;52.108;9.360;2023-02-15T00:34:16;18.15;;;13.90;;
64986;SDS011;51532;52.108;9.360;2023-02-15T00:36:44;18.42;;;14.20;;
64986;SDS011;51532;52.108;9.360;2023-02-15T00:39:13;16.80;;;13.45;;
64986;SDS011;51532;52.108;9.360;2023-02-15T00:41:42;17.02;;;13.65;;
64986;SDS011;51532;52.108;9.360;2023-02-15T00:44:10;17.70;;;14.10;;
64986;SDS011;51532;52.108;9.360;2023-02-15T00:46:38;17.77;;;12.98;;
64986;SDS011;51532;52.108;9.360;2023-02-15T00:49:08;19.25;;;14.05;;
64986;SDS011;51532;52.108;9.360;2023-02-15T00:51:36;19.52;;;14.20;;
64986;SDS011;51532;52.108;9.360;2023-02-15T00:54:04;20.48;;;13.48;;
64986;SDS011;51532;52.108;9.360;2023-02-15T00:56:31;21.55;;;14.75;;
64986;SDS011;51532;52.108;9.360;2023-02-15T00:58:58;20.02;;;13.73;;
64986;SDS011;51532;52.108;9.360;2023-02-15T01:01:24;18.73;;;14.48;;
64986;SDS011;51532;52.108;9.360;2023-02-15T01:03:52;19.20;;;14.73;;
64986;SDS011;51532;52.108;9.360;2023-02-15T01:06:19;21.75;;;15.88;;
64986;SDS011;51532;52.108;9.360;2023-02-15T01:08:46;18.90;;;14.48;;
64986;SDS011;51532;52.108;9.360;2023-02-15T01:11:15;20.95;;;15.95;;
64986;SDS011;51532;52.108;9.360;2023-02-15T01:13:50;20.65;;;15.07;;
64986;SDS011;51532;52.108;9.360;2023-02-15T01:16:19;20.73;;;15.20;;
64986;SDS011;51532;52.108;9.360;2023-02-15T01:18:46;19.63;;;15.43;;
64986;SDS011;51532;52.108;9.360;2023-02-15T01:21:16;20.60;;;14.32;;
64986;SDS011;51532;52.108;9.360;2023-02-15T01:23:44;21.50;;;14.57;;
64986;SDS011;51532;52.108;9.360;2023-02-15T01:26:11;20.10;;;14.68;;
64986;SDS011;51532;52.108;9.360;2023-02-15T01:28:39;20.35;;;14.77;;
64986;SDS011;51532;52.108;9.360;2023-02-15T01:31:07;24.05;;;16.05;;
64986;SDS011;51532;52.108;9.360;2023-02-15T01:33:36;22.50;;;15.10;;
64986;SDS011;51532;52.108;9.360;2023-02-15T01:36:03;19.58;;;14.50;;
64986;SDS011;51532;52.108;9.360;2023-02-15T01:38:31;22.65;;;15.52;;
64986;SDS011;51532;52.108;9.360;2023-02-15T01:40:58;21.63;;;15.15;;
64986;SDS011;51532;52.108;9.360;2023-02-15T01:43:46;24.23;;;16.40;;
64986;SDS011;51532;52.108;9.360;2023-02-15T01:46:15;21.98;;;15.85;;
64986;SDS011;51532;52.108;9.360;2023-02-15T01:48:45;22.60;;;16.00;;
64986;SDS011;51532;52.108;9.360;2023-02-15T01:51:14;24.08;;;16.45;;
64986;SDS011;51532;52.108;9.360;2023-02-15T01:53:51;21.15;;;15.68;;
64986;SDS011;51532;52.108;9.360;2023-02-15T01:56:24;21.27;;;16.60;;
64986;SDS011;51532;52.108;9.360;2023-02-15T01:58:59;22.83;;;16.73;;
64986;SDS011;51532;52.108;9.360;2023-02-15T02:01:29;23.35;;;17.10;;
64986;SDS011;51532;52.108;9.360;2023-02-15T02:04:02;23.33;;;16.55;;
64986;SDS011;51532;52.108;9.360;2023-02-15T02:06:31;24.30;;;17.85;;
64986;SDS011;51532;52.108;9.360;2023-02-15T02:09:00;21.30;;;16.17;;
64986;SDS011;51532;52.108;9.360;2023-02-15T02:11:27;21.73;;;16.40;;
64986;SDS011;51532;52.108;9.360;2023-02-15T02:13:54;22.02;;;15.82;;
64986;SDS011;51532;52.108;9.360;2023-02-15T02:16:27;23.70;;;16.95;;
64986;SDS011;51532;52.108;9.360;2023-02-15T02:22:24;22.27;;;16.00;;
64986;SDS011;51532;52.108;9.360;2023-02-15T02:25:11;23.70;;;15.98;;
64986;SDS011;51532;52.108;9.360;2023-02-15T02:38:53;24.70;;;17.13;;
64986;SDS011;51532;52.108;9.360;2023-02-15T02:41:34;24.25;;;16.88;;
64986;SDS011;51532;52.108;9.360;2023-02-15T02:44:07;25.83;;;17.75;;
64986;SDS011;51532;52.108;9.360;2023-02-15T02:46:50;27.77;;;18.02;;
64986;SDS011;51532;52.108;9.360;2023-02-15T02:49:58;24.90;;;17.35;;
64986;SDS011;51532;52.108;9.360;2023-02-15T02:55:06;22.40;;;16.42;;
64986;SDS011;51532;52.108;9.360;2023-02-15T02:57:39;25.02;;;17.85;;
64986;SDS011;51532;52.108;9.360;2023-02-15T03:00:13;27.13;;;18.85;;
64986;SDS011;51532;52.108;9.360;2023-02-15T03:02:42;26.98;;;18.50;;
64986;SDS011;51532;52.108;9.360;2023-02-15T03:05:15;26.02;;;18.40;;
64986;SDS011;51532;52.108;9.360;2023-02-15T03:07:45;25.63;;;18.08;;
64986;SDS011;51532;52.108;9.360;2023-02-15T03:10:16;25.73;;;18.38;;
64986;SDS011;51532;52.108;9.360;2023-02-15T03:12:49;23.52;;;16.92;;
64986;SDS011;51532;52.108;9.360;2023-02-15T03:15:23;28.10;;;18.65;;
64986;SDS011;51532;52.108;9.360;2023-02-15T03:18:16;26.58;;;18.10;;
64986;SDS011;51532;52.108;9.360;2023-02-15T03:20:46;23.58;;;17.40;;
64986;SDS011;51532;52.108;9.360;2023-02-15T03:23:15;26.20;;;18.42;;
64986;SDS011;51532;52.108;9.360;2023-02-15T03:25:48;27.30;;;19.42;;
64986;SDS011;51532;52.108;9.360;2023-02-15T03:28:23;27.15;;;19.05;;
64986;SDS011;51532;52.108;9.360;2023-02-15T03:30:57;27.63;;;18.35;;
64986;SDS011;51532;52.108;9.360;2023-02-15T03:33:27;26.92;;;18.38;;
64986;SDS011;51532;52.108;9.360;2023-02-15T03:36:07;26.67;;;18.92;;
64986;SDS011;51532;52.108;9.360;2023-02-15T03:38:49;27.88;;;18.92;;
64986;SDS011;51532;52.108;9.360;2023-02-15T03:41:26;28.45;;;19.13;;
64986;SDS011;51532;52.108;9.360;2023-02-15T03:44:20;31.20;;;20.02;;
64986;SDS011;51532;52.108;9.360;2023-02-15T03:46:54;29.95;;;19.75;;
64986;SDS011;51532;52.108;9.360;2023-02-15T03:49:35;29.20;;;19.48;;
64986;SDS011;51532;52.108;9.360;2023-02-15T03:52:07;29.23;;;20.52;;
64986;SDS011;51532;52.108;9.360;2023-02-15T03:54:36;28.42;;;18.65;;
64986;SDS011;51532;52.108;9.360;2023-02-15T03:57:21;31.55;;;21.15;;
64986;SDS011;51532;52.108;9.360;2023-02-15T04:00:11;30.50;;;19.15;;
64986;SDS011;51532;52.108;9.360;2023-02-15T04:05:35;29.35;;;19.98;;
64986;SDS011;51532;52.108;9.360;2023-02-15T04:08:02;27.75;;;18.80;;
64986;SDS011;51532;52.108;9.360;2023-02-15T04:10:29;27.63;;;19.65;;
64986;SDS011;51532;52.108;9.360;2023-02-15T04:13:14;27.55;;;19.67;;
64986;SDS011;51532;52.108;9.360;2023-02-15T04:15:41;28.55;;;20.00;;
64986;SDS011;51532;52.108;9.360;2023-02-15T04:18:27;26.27;;;18.58;;
64986;SDS011;51532;52.108;9.360;2023-02-15T04:21:12;28.70;;;19.05;;
64986;SDS011;51532;52.108;9.360;2023-02-15T04:23:57;30.67;;;20.77;;
64986;SDS011;51532;52.108;9.360;2023-02-15T04:26:43;27.52;;;19.58;;
64986;SDS011;51532;52.108;9.360;2023-02-15T04:29:10;26.60;;;19.20;;
64986;SDS011;51532;52.108;9.360;2023-02-15T04:31:37;26.77;;;18.05;;
64986;SDS011;51532;52.108;9.360;2023-02-15T04:34:04;28.02;;;18.80;;
64986;SDS011;51532;52.108;9.360;2023-02-15T04:36:30;24.05;;;18.05;;
64986;SDS011;51532;52.108;9.360;2023-02-15T04:38:57;25.48;;;18.08;;
64986;SDS011;51532;52.108;9.360;2023-02-15T04:41:24;24.95;;;17.48;;
64986;SDS011;51532;52.108;9.360;2023-02-15T04:43:51;23.38;;;16.23;;
64986;SDS011;51532;52.108;9.360;2023-02-15T04:46:17;25.15;;;16.85;;
64986;SDS011;51532;52.108;9.360;2023-02-15T04:48:44;23.65;;;16.92;;
64986;SDS011;51532;52.108;9.360;2023-02-15T04:51:11;22.70;;;16.92;;
64986;SDS011;51532;52.108;9.360;2023-02-15T04:53:38;23.45;;;17.25;;
64986;SDS011;51532;52.108;9.360;2023-02-15T04:56:04;23.48;;;17.00;;
64986;SDS011;51532;52.108;9.360;2023-02-15T04:58:31;24.30;;;17.52;;
64986;SDS011;51532;52.108;9.360;2023-02-15T05:00:58;22.58;;;16.48;;
64986;SDS011;51532;52.108;9.360;2023-02-15T05:03:25;22.75;;;16.52;;
64986;SDS011;51532;52.108;9.360;2023-02-15T05:05:52;20.02;;;15.30;;
64986;SDS011;51532;52.108;9.360;2023-02-15T05:08:19;21.40;;;16.30;;
64986;SDS011;51532;52.108;9.360;2023-02-15T05:10:47;21.52;;;15.02;;
64986;SDS011;51532;52.108;9.360;2023-02-15T05:13:15;20.15;;;15.02;;
64986;SDS011;51532;52.108;9.360;2023-02-15T05:15:46;22.45;;;15.45;;
64986;SDS011;51532;52.108;9.360;2023-02-15T05:18:14;20.23;;;15.65;;
64986;SDS011;51532;52.108;9.360;2023-02-15T05:20:41;20.15;;;14.88;;
64986;SDS011;51532;52.108;9.360;2023-02-15T05:23:08;19.92;;;15.07;;
64986;SDS011;51532;52.108;9.360;2023-02-15T05:25:36;19.38;;;14.27;;
64986;SDS011;51532;52.108;9.360;2023-02-15T05:28:22;20.27;;;15.27;;
64986;SDS011;51532;52.108;9.360;2023-02-15T05:30:51;18.30;;;14.35;;
64986;SDS011;51532;52.108;9.360;2023-02-15T05:33:29;20.02;;;14.35;;
64986;SDS011;51532;52.108;9.360;2023-02-15T05:35:56;24.55;;;16.13;;
64986;SDS011;51532;52.108;9.360;2023-02-15T05:38:23;17.55;;;13.50;;
64986;SDS011;51532;52.108;9.360;2023-02-15T05:40:50;19.98;;;14.82;;
64986;SDS011;51532;52.108;9.360;2023-02-15T05:43:17;17.05;;;13.60;;
64986;SDS011;51532;52.108;9.360;2023-02-15T05:45:45;19.23;;;14.63;;
64986;SDS011;51532;52.108;9.360;2023-02-15T05:48:16;19.88;;;14.35;;
64986;SDS011;51532;52.108;9.360;2023-02-15T05:50:44;19.33;;;14.57;;
64986;SDS011;51532;52.108;9.360;2023-02-15T05:53:11;18.90;;;14.25;;
64986;SDS011;51532;52.108;9.360;2023-02-15T05:55:41;18.55;;;13.88;;
64986;SDS011;51532;52.108;9.360;2023-02-15T05:58:08;19.10;;;13.25;;
64986;SDS011;51532;52.108;9.360;2023-02-15T06:00:34;18.27;;;13.98;;
64986;SDS011;51532;52.108;9.360;2023-02-15T06:03:03;18.42;;;13.98;;
64986;SDS011;51532;52.108;9.360;2023-02-15T06:05:30;16.38;;;13.50;;
64986;SDS011;51532;52.108;9.360;2023-02-15T06:07:57;18.98;;;13.65;;
64986;SDS011;51532;52.108;9.360;2023-02-15T06:10:23;16.40;;;12.95;;
64986;SDS011;51532;52.108;9.360;2023-02-15T06:12:50;17.17;;;13.25;;
64986;SDS011;51532;52.108;9.360;2023-02-15T06:15:17;16.27;;;12.75;;
64986;SDS011;51532;52.108;9.360;2023-02-15T06:17:44;18.00;;;13.73;;
64986;SDS011;51532;52.108;9.360;2023-02-15T06:20:11;16.58;;;13.57;;
64986;SDS011;51532;52.108;9.360;2023-02-15T06:22:38;17.48;;;12.68;;
64986;SDS011;51532;52.108;9.360;2023-02-15T06:25:05;17.63;;;13.48;;
64986;SDS011;51532;52.108;9.360;2023-02-15T06:27:32;17.60;;;13.23;;
64986;SDS011;51532;52.108;9.360;2023-02-15T06:29:58;17.48;;;12.95;;
64986;SDS011;51532;52.108;9.360;2023-02-15T06:32:25;19.00;;;13.73;;
64986;SDS011;51532;52.108;9.360;2023-02-15T06:34:52;17.30;;;12.45;;
64986;SDS011;51532;52.108;9.360;2023-02-15T06:37:19;18.02;;;13.48;;
64986;SDS011;51532;52.108;9.360;2023-02-15T06:39:45;58.50;;;39.60;;
64986;SDS011;51532;52.108;9.360;2023-02-15T06:42:12;36.17;;;24.55;;
64986;SDS011;51532;52.108;9.360;2023-02-15T06:44:39;43.97;;;29.42;;
64986;SDS011;51532;52.108;9.360;2023-02-15T06:47:05;24.40;;;19.10;;
64986;SDS011;51532;52.108;9.360;2023-02-15T06:49:32;35.05;;;24.67;;
64986;SDS011;51532;52.108;9.360;2023-02-15T06:51:59;32.55;;;21.80;;
64986;SDS011;51532;52.108;9.360;2023-02-15T06:54:26;36.53;;;24.60;;
64986;SDS011;51532;52.108;9.360;2023-02-15T06:56:52;24.05;;;17.60;;
64986;SDS011;51532;52.108;9.360;2023-02-15T06:59:19;18.52;;;13.63;;
64986;SDS011;51532;52.108;9.360;2023-02-15T07:01:46;18.55;;;14.27;;
64986;SDS011;51532;52.108;9.360;2023-02-15T07:04:13;17.02;;;12.95;;
64986;SDS011;51532;52.108;9.360;2023-02-15T07:06:40;17.55;;;13.63;;
64986;SDS011;51532;52.108;9.360;2023-02-15T07:09:07;17.25;;;13.38;;
64986;SDS011;51532;52.108;9.360;2023-02-15T07:11:33;19.58;;;13.50;;
64986;SDS011;51532;52.108;9.360;2023-02-15T07:14:19;16.98;;;12.85;;
64986;SDS011;51532;52.108;9.360;2023-02-15T07:16:46;16.33;;;12.48;;
64986;SDS011;51532;52.108;9.360;2023-02-15T07:19:13;15.00;;;13.25;;
64986;SDS011;51532;52.108;9.360;2023-02-15T07:21:40;16.75;;;12.43;;
64986;SDS011;51532;52.108;9.360;2023-02-15T07:24:06;16.92;;;12.65;;
64986;SDS011;51532;52.108;9.360;2023-02-15T07:26:33;15.27;;;12.52;;
64986;SDS011;51532;52.108;9.360;2023-02-15T07:29:00;16.40;;;12.48;;
64986;SDS011;51532;52.108;9.360;2023-02-15T07:31:27;16.52;;;13.23;;
64986;SDS011;51532;52.108;9.360;2023-02-15T07:33:54;15.48;;;12.60;;
64986;SDS011;51532;52.108;9.360;2023-02-15T07:36:21;15.82;;;12.65;;
64986;SDS011;51532;52.108;9.360;2023-02-15T07:38:48;16.98;;;12.95;;
64986;SDS011;51532;52.108;9.360;2023-02-15T07:41:15;16.95;;;12.95;;
64986;SDS011;51532;52.108;9.360;2023-02-15T07:43:42;17.17;;;12.70;;
64986;SDS011;51532;52.108;9.360;2023-02-15T07:46:14;16.13;;;12.63;;
64986;SDS011;51532;52.108;9.360;2023-02-15T07:48:43;16.15;;;12.27;;
64986;SDS011;51532;52.108;9.360;2023-02-15T07:51:10;17.33;;;13.13;;
64986;SDS011;51532;52.108;9.360;2023-02-15T07:53:38;17.25;;;12.98;;
64986;SDS011;51532;52.108;9.360;2023-02-15T07:56:06;16.80;;;12.93;;
64986;SDS011;51532;52.108;9.360;2023-02-15T07:58:37;16.75;;;13.05;;
64986;SDS011;51532;52.108;9.360;2023-02-15T08:03:49;16.75;;;12.35;;
64986;SDS011;51532;52.108;9.360;2023-02-15T08:06:16;16.10;;;12.73;;
64986;SDS011;51532;52.108;9.360;2023-02-15T08:08:43;15.57;;;12.88;;
64986;SDS011;51532;52.108;9.360;2023-02-15T08:11:18;15.65;;;12.15;;
64986;SDS011;51532;52.108;9.360;2023-02-15T08:16:24;15.98;;;11.80;;
64986;SDS011;51532;52.108;9.360;2023-02-15T08:18:58;15.77;;;11.95;;
64986;SDS011;51532;52.108;9.360;2023-02-15T08:21:27;13.13;;;10.75;;
64986;SDS011;51532;52.108;9.360;2023-02-15T08:23:55;11.98;;;9.90;;
64986;SDS011;51532;52.108;9.360;2023-02-15T08:26:23;11.63;;;10.25;;
64986;SDS011;51532;52.108;9.360;2023-02-15T08:28:51;14.18;;;10.80;;
64986;SDS011;51532;52.108;9.360;2023-02-15T08:31:18;11.25;;;9.75;;
64986;SDS011;51532;52.108;9.360;2023-02-15T08:33:46;14.02;;;11.05;;
64986;SDS011;51532;52.108;9.360;2023-02-15T08:36:15;13.57;;;10.13;;
64986;SDS011;51532;52.108;9.360;2023-02-15T08:38:44;12.68;;;9.63;;
64986;SDS011;51532;52.108;9.360;2023-02-15T08:43:43;12.93;;;10.65;;
64986;SDS011;51532;52.108;9.360;2023-02-15T08:46:10;11.70;;;10.20;;
64986;SDS011;51532;52.108;9.360;2023-02-15T08:48:37;11.30;;;9.75;;
64986;SDS011;51532;52.108;9.360;2023-02-15T08:51:09;12.68;;;10.52;;
64986;SDS011;51532;52.108;9.360;2023-02-15T08:53:41;14.10;;;10.27;;
64986;SDS011;51532;52.108;9.360;2023-02-15T08:56:16;11.57;;;9.30;;
64986;SDS011;51532;52.108;9.360;2023-02-15T08:58:44;11.73;;;9.48;;
64986;SDS011;51532;52.108;9.360;2023-02-15T09:01:15;12.68;;;10.15;;
64986;SDS011;51532;52.108;9.360;2023-02-15T09:03:46;13.73;;;10.68;;
64986;SDS011;51532;52.108;9.360;2023-02-15T09:06:15;11.75;;;10.20;;
64986;SDS011;51532;52.108;9.360;2023-02-15T09:08:43;12.18;;;9.88;;
64986;SDS011;51532;52.108;9.360;2023-02-15T09:11:11;12.82;;;10.20;;
64986;SDS011;51532;52.108;9.360;2023-02-15T09:13:39;11.80;;;9.23;;
64986;SDS011;51532;52.108;9.360;2023-02-15T09:16:07;11.15;;;9.27;;
64986;SDS011;51532;52.108;9.360;2023-02-15T09:18:38;11.48;;;9.63;;
64986;SDS011;51532;52.108;9.360;2023-02-15T09:21:06;10.35;;;9.05;;
64986;SDS011;51532;52.108;9.360;2023-02-15T09:23:35;12.50;;;10.02;;
64986;SDS011;51532;52.108;9.360;2023-02-15T09:26:03;12.07;;;9.80;;
64986;SDS011;51532;52.108;9.360;2023-02-15T09:28:31;12.68;;;9.38;;
64986;SDS011;51532;52.108;9.360;2023-02-15T09:33:35;12.10;;;9.45;;
64986;SDS011;51532;52.108;9.360;2023-02-15T09:36:03;12.20;;;9.75;;
64986;SDS011;51532;52.108;9.360;2023-02-15T09:38:31;12.98;;;9.80;;
64986;SDS011;51532;52.108;9.360;2023-02-15T10:15:34;10.38;;;8.70;;
64986;SDS011;51532;52.108;9.360;2023-02-15T10:21:35;12.40;;;9.93;;
64986;SDS011;51532;52.108;9.360;2023-02-15T10:24:24;11.13;;;8.95;;
64986;SDS011;51532;52.108;9.360;2023-02-15T10:27:13;10.57;;;8.73;;
64986;SDS011;51532;52.108;9.360;2023-02-15T10:32:31;10.32;;;9.18;;
64986;SDS011;51532;52.108;9.360;2023-02-15T10:35:24;10.60;;;9.18;;
64986;SDS011;51532;52.108;9.360;2023-02-15T10:38:05;11.27;;;9.13;;
64986;SDS011;51532;52.108;9.360;2023-02-15T10:46:31;10.88;;;8.65;;
64986;SDS011;51532;52.108;9.360;2023-02-15T10:49:33;11.98;;;9.20;;
64986;SDS011;51532;52.108;9.360;2023-02-15T11:06:50;12.00;;;9.25;;
64986;SDS011;51532;52.108;9.360;2023-02-15T11:09:21;11.48;;;8.70;;
64986;SDS011;51532;52.108;9.360;2023-02-15T11:11:51;11.48;;;9.57;;
64986;SDS011;51532;52.108;9.360;2023-02-15T11:14:34;11.60;;;9.23;;
64986;SDS011;51532;52.108;9.360;2023-02-15T11:17:14;13.18;;;9.40;;
64986;SDS011;51532;52.108;9.360;2023-02-15T11:22:33;10.57;;;8.93;;
64986;SDS011;51532;52.108;9.360;2023-02-15T11:25:01;12.38;;;9.70;;
64986;SDS011;51532;52.108;9.360;2023-02-15T11:27:40;12.70;;;9.63;;
64986;SDS011;51532;52.108;9.360;2023-02-15T11:33:01;12.48;;;9.63;;
64986;SDS011;51532;52.108;9.360;2023-02-15T11:35:33;13.77;;;10.40;;
64986;SDS011;51532;52.108;9.360;2023-02-15T11:38:13;11.32;;;9.32;;
64986;SDS011;51532;52.108;9.360;2023-02-15T11:40:47;11.93;;;8.98;;
64986;SDS011;51532;52.108;9.360;2023-02-15T11:43:17;10.27;;;8.88;;
64986;SDS011;51532;52.108;9.360;2023-02-15T11:45:59;13.20;;;9.93;;
64986;SDS011;51532;52.108;9.360;2023-02-15T11:48:26;12.60;;;10.30;;
64986;SDS011;51532;52.108;9.360;2023-02-15T11:50:56;12.25;;;10.60;;
64986;SDS011;51532;52.108;9.360;2023-02-15T11:53:23;12.60;;;8.50;;
64986;SDS011;51532;52.108;9.360;2023-02-15T11:55:54;12.93;;;9.30;;
64986;SDS011;51532;52.108;9.360;2023-02-15T11:58:29;11.95;;;9.48;;
64986;SDS011;51532;52.108;9.360;2023-02-15T12:01:11;12.65;;;9.48;;
64986;SDS011;51532;52.108;9.360;2023-02-15T12:03:52;13.52;;;10.05;;
64986;SDS011;51532;52.108;9.360;2023-02-15T12:06:24;12.25;;;9.32;;
64986;SDS011;51532;52.108;9.360;2023-02-15T12:11:50;13.20;;;9.90;;
64986;SDS011;51532;52.108;9.360;2023-02-15T12:14:17;12.48;;;9.80;;
64986;SDS011;51532;52.108;9.360;2023-02-15T12:16:45;12.13;;;9.88;;
64986;SDS011;51532;52.108;9.360;2023-02-15T12:22:18;14.00;;;9.85;;
64986;SDS011;51532;52.108;9.360;2023-02-15T12:24:50;12.77;;;10.13;;
64986;SDS011;51532;52.108;9.360;2023-02-15T12:27:23;14.07;;;10.13;;
64986;SDS011;51532;52.108;9.360;2023-02-15T12:30:06;13.45;;;10.00;;
64986;SDS011;51532;52.108;9.360;2023-02-15T12:35:47;11.80;;;9.07;;
64986;SDS011;51532;52.108;9.360;2023-02-15T12:38:26;12.88;;;10.65;;
64986;SDS011;51532;52.108;9.360;2023-02-15T12:41:01;12.98;;;10.18;;
64986;SDS011;51532;52.108;9.360;2023-02-15T12:43:34;11.90;;;9.38;;
64986;SDS011;51532;52.108;9.360;2023-02-15T12:49:06;13.77;;;10.20;;
64986;SDS011;51532;52.108;9.360;2023-02-15T12:51:42;14.15;;;9.23;;
64986;SDS011;51532;52.108;9.360;2023-02-15T12:54:20;12.35;;;9.63;;
64986;SDS011;51532;52.108;9.360;2023-02-15T12:56:50;12.73;;;10.10;;
64986;SDS011;51532;52.108;9.360;2023-02-15T12:59:18;11.45;;;9.48;;
64986;SDS011;51532;52.108;9.360;2023-02-15T13:01:48;13.30;;;10.23;;
64986;SDS011;51532;52.108;9.360;2023-02-15T13:04:26;13.40;;;10.25;;
64986;SDS011;51532;52.108;9.360;2023-02-15T13:06:55;13.02;;;10.00;;
64986;SDS011;51532;52.108;9.360;2023-02-15T13:09:34;13.75;;;10.07;;
64986;SDS011;51532;52.108;9.360;2023-02-15T13:12:23;13.55;;;10.18;;
64986;SDS011;51532;52.108;9.360;2023-02-15T13:14:57;12.18;;;9.52;;
64986;SDS011;51532;52.108;9.360;2023-02-15T13:17:29;11.95;;;9.23;;
64986;SDS011;51532;52.108;9.360;2023-02-15T13:20:00;11.15;;;9.60;;
64986;SDS011;51532;52.108;9.360;2023-02-15T13:22:39;12.07;;;9.27;;
64986;SDS011;51532;52.108;9.360;2023-02-15T13:25:19;12.38;;;10.40;;
64986;SDS011;51532;52.108;9.360;2023-02-15T13:27:50;12.63;;;9.98;;
64986;SDS011;51532;52.108;9.360;2023-02-15T13:30:22;13.00;;;10.27;;
64986;SDS011;51532;52.108;9.360;2023-02-15T13:32:56;10.57;;;9.05;;
64986;SDS011;51532;52.108;9.360;2023-02-15T13:35:28;12.95;;;10.55;;
64986;SDS011;51532;52.108;9.360;2023-02-15T13:40:58;14.38;;;10.25;;
64986;SDS011;51532;52.108;9.360;2023-02-15T13:43:35;11.73;;;9.70;;
64986;SDS011;51532;52.108;9.360;2023-02-15T13:46:19;13.27;;;9.93;;
64986;SDS011;51532;52.108;9.360;2023-02-15T13:49:04;14.57;;;10.77;;
64986;SDS011;51532;52.108;9.360;2023-02-15T14:03:13;11.35;;;9.75;;
64986;SDS011;51532;52.108;9.360;2023-02-15T14:06:30;11.70;;;9.82;;
64986;SDS011;51532;52.108;9.360;2023-02-15T14:14:52;12.23;;;9.75;;
64986;SDS011;51532;52.108;9.360;2023-02-15T14:20:21;11.32;;;10.00;;
64986;SDS011;51532;52.108;9.360;2023-02-15T14:25:40;12.25;;;9.40;;
64986;SDS011;51532;52.108;9.360;2023-02-15T14:28:19;12.27;;;9.65;;
64986;SDS011;51532;52.108;9.360;2023-02-15T14:31:03;13.23;;;9.70;;
64986;SDS011;51532;52.108;9.360;2023-02-15T14:33:40;11.68;;;9.23;;
64986;SDS011;51532;52.108;9.360;2023-02-15T14:36:15;13.20;;;9.35;;
64986;SDS011;51532;52.108;9.360;2023-02-15T14:42:23;13.55;;;10.15;;
64986;SDS011;51532;52.108;9.360;2023-02-15T14:48:31;12.05;;;9.80;;
64986;SDS011;51532;52.108;9.360;2023-02-15T14:50:59;11.88;;;10.43;;
64986;SDS011;51532;52.108;9.360;2023-02-15T14:58:36;13.52;;;10.23;;
64986;SDS011;51532;52.108;9.360;2023-02-15T15:01:05;12.40;;;10.10;;
64986;SDS011;51532;52.108;9.360;2023-02-15T15:03:33;14.43;;;10.45;;
64986;SDS011;51532;52.108;9.360;2023-02-15T15:06:04;13.30;;;9.98;;
64986;SDS011;51532;52.108;9.360;2023-02-15T15:08:36;11.27;;;10.07;;
64986;SDS011;51532;52.108;9.360;2023-02-15T15:16:59;14.27;;;10.30;;
64986;SDS011;51532;52.108;9.360;2023-02-15T15:22:22;12.20;;;9.98;;
64986;SDS011;51532;52.108;9.360;2023-02-15T15:24:53;13.30;;;9.57;;
64986;SDS011;51532;52.108;9.360;2023-02-15T15:32:42;13.50;;;10.13;;
64986;SDS011;51532;52.108;9.360;2023-02-15T15:41:30;13.35;;;10.75;;
64986;SDS011;51532;52.108;9.360;2023-02-15T15:50:00;14.20;;;11.27;;
64986;SDS011;51532;52.108;9.360;2023-02-15T15:52:38;13.15;;;10.43;;
64986;SDS011;51532;52.108;9.360;2023-02-15T15:55:14;12.88;;;10.63;;
64986;SDS011;51532;52.108;9.360;2023-02-15T15:57:47;13.30;;;10.50;;
64986;SDS011;51532;52.108;9.360;2023-02-15T16:01:00;15.00;;;11.15;;
64986;SDS011;51532;52.108;9.360;2023-02-15T16:03:22;16.05;;;10.63;;
64986;SDS011;51532;52.108;9.360;2023-02-15T16:05:51;15.73;;;11.07;;
64986;SDS011;51532;52.108;9.360;2023-02-15T16:08:32;15.80;;;11.65;;
64986;SDS011;51532;52.108;9.360;2023-02-15T16:11:11;13.88;;;11.13;;
64986;SDS011;51532;52.108;9.360;2023-02-15T16:13:42;13.52;;;11.50;;
64986;SDS011;51532;52.108;9.360;2023-02-15T16:16:11;14.52;;;11.25;;
64986;SDS011;51532;52.108;9.360;2023-02-15T16:18:39;15.38;;;11.50;;
64986;SDS011;51532;52.108;9.360;2023-02-15T16:21:12;14.30;;;11.50;;
64986;SDS011;51532;52.108;9.360;2023-02-15T16:23:53;13.07;;;11.18;;
64986;SDS011;51532;52.108;9.360;2023-02-15T16:26:41;13.35;;;11.18;;
64986;SDS011;51532;52.108;9.360;2023-02-15T16:29:27;14.68;;;11.25;;
64986;SDS011;51532;52.108;9.360;2023-02-15T16:34:55;13.07;;;10.75;;
64986;SDS011;51532;52.108;9.360;2023-02-15T16:37:25;13.50;;;11.23;;
64986;SDS011;51532;52.108;9.360;2023-02-15T16:39:59;13.70;;;11.20;;
64986;SDS011;51532;52.108;9.360;2023-02-15T16:42:26;13.70;;;11.32;;
64986;SDS011;51532;52.108;9.360;2023-02-15T16:47:31;15.63;;;11.23;;
64986;SDS011;51532;52.108;9.360;2023-02-15T16:50:06;15.80;;;11.80;;
64986;SDS011;51532;52.108;9.360;2023-02-15T16:52:47;13.70;;;10.95;;
64986;SDS011;51532;52.108;9.360;2023-02-15T16:55:20;16.70;;;12.25;;
64986;SDS011;51532;52.108;9.360;2023-02-15T16:57:53;15.98;;;12.15;;
64986;SDS011;51532;52.108;9.360;2023-02-15T17:00:25;14.75;;;10.98;;
64986;SDS011;51532;52.108;9.360;2023-02-15T17:02:58;14.45;;;10.75;;
64986;SDS011;51532;52.108;9.360;2023-02-15T17:05:31;15.43;;;11.98;;
64986;SDS011;51532;52.108;9.360;2023-02-15T17:08:12;87.03;;;55.80;;
64986;SDS011;51532;52.108;9.360;2023-02-15T17:13:26;26.23;;;18.02;;
64986;SDS011;51532;52.108;9.360;2023-02-15T17:18:28;94.53;;;51.42;;
64986;SDS011;51532;52.108;9.360;2023-02-15T17:20:58;80.82;;;50.15;;
64986;SDS011;51532;52.108;9.360;2023-02-15T17:23:28;84.53;;;53.55;;
64986;SDS011;51532;52.108;9.360;2023-02-15T17:25:58;43.92;;;27.48;;
64986;SDS011;51532;52.108;9.360;2023-02-15T17:28:28;25.35;;;17.42;;
64986;SDS011;51532;52.108;9.360;2023-02-15T17:30:57;18.48;;;12.55;;
64986;SDS011;51532;52.108;9.360;2023-02-15T17:33:46;17.52;;;12.68;;
64986;SDS011;51532;52.108;9.360;2023-02-15T17:36:17;16.27;;;11.60;;
64986;SDS011;51532;52.108;9.360;2023-02-15T17:41:24;16.67;;;12.10;;
64986;SDS011;51532;52.108;9.360;2023-02-15T17:43:53;17.05;;;12.48;;
64986;SDS011;51532;52.108;9.360;2023-02-15T17:46:20;16.27;;;12.05;;
64986;SDS011;51532;52.108;9.360;2023-02-15T17:49:14;15.10;;;12.02;;
64986;SDS011;51532;52.108;9.360;2023-02-15T17:51:50;18.00;;;12.15;;
64986;SDS011;51532;52.108;9.360;2023-02-15T17:54:16;20.08;;;12.63;;
64986;SDS011;51532;52.108;9.360;2023-02-15T17:57:02;16.90;;;12.23;;
64986;SDS011;51532;52.108;9.360;2023-02-15T17:59:32;20.83;;;13.55;;